Wyocena, Wisconsin
Current Conditions -  °F | °C
As of 9:55 AM on Thursday 23 Oct 2014 (Local Time) from KDLL Reporting Station
Moderate Rain Moderate Rain  
Wind Chill: 41°   Ceiling: 4000
Heat Index: 46°   Visibility: 10mi
Dew Point: 37°   Wind: 9mph
Humidity: 71%   Direction: 180°S
Pressure: 30.1"   Gusts: NA
Location:  43.5°N, 89.31°W
Report Text: KDLL 231455Z AUTO 18008KT 10SM RA OVC040 08/03 A3010 RMK AO2 T00770028
Loading
Personal Weather Stations






























Interactive Weather Map
Tropical Storm Tracking
New forecast layout! Learn more

10-Day Weather Forecast

Advertisements
Track Severe Weather on mobile